createdAt,value
2022-11-16T00:01:45.435Z,4.10
2022-11-16T00:04:12.537Z,4.10
2022-11-16T00:06:40.110Z,4.10
2022-11-16T00:09:22.293Z,4.10
2022-11-16T00:12:11.214Z,4.00
2022-11-16T00:14:38.368Z,3.90
2022-11-16T00:17:05.355Z,3.90
2022-11-16T00:19:32.541Z,3.90
2022-11-16T00:21:59.575Z,3.90
2022-11-16T00:24:26.614Z,3.90
2022-11-16T00:26:54.288Z,3.90
2022-11-16T00:29:22.333Z,3.90
2022-11-16T00:31:49.540Z,3.90
2022-11-16T00:34:23.277Z,3.80
2022-11-16T00:36:50.712Z,3.80
2022-11-16T00:39:18.207Z,3.90
2022-11-16T00:41:52.906Z,3.80
2022-11-16T00:44:20.289Z,3.80
2022-11-16T00:46:47.538Z,3.90
2022-11-16T00:49:14.723Z,3.90
2022-11-16T00:51:42.257Z,3.90
2022-11-16T00:54:09.919Z,3.90
2022-11-16T00:56:37.863Z,3.90
2022-11-16T00:59:19.431Z,3.80
2022-11-16T01:02:03.595Z,3.70
2022-11-16T01:04:40.714Z,3.70
2022-11-16T01:07:07.803Z,3.70
2022-11-16T01:09:34.957Z,3.80
2022-11-16T01:12:12.620Z,3.70
2022-11-16T01:14:40.756Z,3.70
2022-11-16T01:17:08.085Z,3.60
2022-11-16T01:19:35.298Z,3.60
2022-11-16T01:22:02.655Z,3.60
2022-11-16T01:24:30.275Z,3.60
2022-11-16T01:26:58.526Z,3.60
2022-11-16T01:29:30.492Z,3.60
2022-11-16T01:32:00.346Z,3.70
2022-11-16T01:34:28.159Z,3.70
2022-11-16T01:37:01.102Z,3.80
2022-11-16T01:39:31.709Z,3.80
2022-11-16T01:42:01.187Z,3.80
2022-11-16T01:44:31.537Z,3.80
2022-11-16T01:47:09.922Z,3.80
2022-11-16T01:49:39.504Z,3.80
2022-11-16T01:52:10.407Z,3.80
2022-11-16T01:54:42.075Z,3.70
2022-11-16T01:57:10.383Z,3.60
2022-11-16T01:59:41.038Z,3.50
2022-11-16T02:02:14.492Z,3.50
2022-11-16T02:04:41.823Z,3.50
2022-11-16T02:07:12.603Z,3.50
2022-11-16T02:09:54.910Z,3.60
2022-11-16T02:12:52.567Z,3.60
2022-11-16T02:15:27.568Z,3.60
2022-11-16T02:18:08.314Z,3.50
2022-11-16T02:20:55.184Z,3.60
2022-11-16T02:23:35.544Z,3.50
2022-11-16T02:26:28.329Z,3.40
2022-11-16T02:29:11.643Z,3.40
2022-11-16T02:31:42.345Z,3.40
2022-11-16T02:34:11.770Z,3.40
2022-11-16T02:36:40.298Z,3.40
2022-11-16T02:39:13.095Z,3.40
2022-11-16T02:41:42.678Z,3.40
2022-11-16T02:44:24.719Z,3.50
2022-11-16T02:46:55.856Z,3.50
2022-11-16T02:49:37.490Z,3.50
2022-11-16T02:52:12.310Z,3.50
2022-11-16T02:54:39.343Z,3.50
2022-11-16T02:57:07.030Z,3.50
2022-11-16T02:59:42.694Z,3.50
2022-11-16T03:02:20.194Z,3.60
2022-11-16T03:04:48.782Z,3.70
2022-11-16T03:07:17.557Z,3.70
2022-11-16T03:09:46.020Z,3.70
2022-11-16T03:12:20.118Z,3.70
2022-11-16T03:15:02.319Z,3.60
2022-11-16T03:17:31.681Z,3.60
2022-11-16T03:20:02.533Z,3.50
2022-11-16T03:22:42.374Z,3.50
2022-11-16T03:25:27.625Z,3.50
2022-11-16T03:28:10.319Z,3.50
2022-11-16T03:30:41.876Z,3.50
2022-11-16T03:33:27.622Z,3.50
2022-11-16T03:35:57.978Z,3.50
2022-11-16T03:38:27.933Z,3.50
2022-11-16T03:40:59.543Z,3.50
2022-11-16T03:43:27.896Z,3.40
2022-11-16T03:45:56.148Z,3.30
2022-11-16T03:48:23.990Z,3.40
2022-11-16T03:50:51.270Z,3.40
2022-11-16T03:53:32.677Z,3.30
2022-11-16T03:56:06.722Z,3.30
2022-11-16T03:58:34.095Z,3.30
2022-11-16T04:01:03.725Z,3.30
2022-11-16T04:03:31.230Z,3.40
2022-11-16T04:06:17.369Z,3.30
2022-11-16T04:09:02.982Z,3.30
2022-11-16T04:11:48.629Z,3.30
2022-11-16T04:14:38.679Z,3.20
2022-11-16T04:17:33.556Z,3.00
2022-11-16T04:20:19.225Z,2.90
2022-11-16T04:23:17.797Z,2.90
2022-11-16T04:25:46.588Z,2.90
2022-11-16T04:28:17.746Z,2.80
2022-11-16T04:31:09.529Z,2.90
2022-11-16T04:33:57.282Z,2.80
2022-11-16T04:36:43.287Z,2.90
2022-11-16T04:39:11.794Z,2.90
2022-11-16T04:41:58.005Z,3.00
2022-11-16T04:44:47.838Z,3.00
2022-11-16T04:47:14.961Z,2.90
2022-11-16T04:49:42.424Z,3.00
2022-11-16T04:52:09.737Z,3.00
2022-11-16T04:54:38.587Z,3.00
2022-11-16T04:57:06.359Z,3.00
2022-11-16T04:59:34.727Z,3.00
2022-11-16T05:02:09.187Z,3.00
2022-11-16T05:04:45.932Z,3.00
2022-11-16T05:07:14.450Z,3.00
2022-11-16T05:09:45.197Z,3.10
2022-11-16T05:12:17.413Z,3.20
2022-11-16T05:14:46.659Z,3.20
2022-11-16T05:17:15.898Z,3.20
2022-11-16T05:20:01.486Z,3.20
2022-11-16T05:22:33.439Z,3.20
2022-11-16T05:25:03.163Z,3.20
2022-11-16T05:27:30.534Z,3.30
2022-11-16T05:29:58.368Z,3.30
2022-11-16T05:32:26.542Z,3.30
2022-11-16T05:35:03.803Z,3.30
2022-11-16T05:37:38.531Z,3.30
2022-11-16T05:40:05.757Z,3.30
2022-11-16T05:42:49.650Z,3.30
2022-11-16T05:45:21.004Z,3.20
2022-11-16T05:47:49.102Z,3.20
2022-11-16T05:50:16.715Z,3.30
2022-11-16T05:52:46.747Z,3.30
2022-11-16T05:55:13.731Z,3.30
2022-11-16T05:57:43.434Z,3.20
2022-11-16T06:00:11.809Z,3.20
2022-11-16T06:02:49.011Z,3.20
2022-11-16T06:05:24.104Z,3.30
2022-11-16T06:07:51.564Z,3.20
2022-11-16T06:10:18.503Z,3.20
2022-11-16T06:12:48.663Z,3.20
2022-11-16T06:15:16.100Z,3.30
2022-11-16T06:17:43.067Z,3.30
2022-11-16T06:20:11.289Z,3.20
2022-11-16T06:22:38.810Z,3.10
2022-11-16T06:25:11.032Z,3.10
2022-11-16T06:27:42.173Z,3.10
2022-11-16T06:30:11.326Z,3.10
2022-11-16T06:32:40.216Z,3.20
2022-11-16T06:35:08.666Z,3.20
2022-11-16T06:37:37.048Z,3.20
2022-11-16T06:40:04.189Z,3.10
2022-11-16T06:42:41.702Z,3.10
2022-11-16T06:45:22.168Z,3.10
2022-11-16T06:48:03.865Z,3.00
2022-11-16T06:50:53.861Z,2.90
2022-11-16T06:53:30.064Z,2.90
2022-11-16T06:56:04.390Z,2.90
2022-11-16T06:58:35.771Z,2.90
2022-11-16T07:01:11.498Z,2.90
2022-11-16T07:03:40.897Z,3.00
2022-11-16T07:06:13.091Z,2.90
2022-11-16T07:08:42.935Z,2.90
2022-11-16T07:11:11.717Z,2.90
2022-11-16T07:13:47.850Z,3.00
2022-11-16T07:16:27.889Z,3.10
2022-11-16T07:19:16.752Z,3.10
2022-11-16T07:21:43.757Z,3.20
2022-11-16T07:24:15.414Z,3.30
2022-11-16T07:26:43.107Z,3.40
2022-11-16T07:29:15.773Z,3.30
2022-11-16T07:32:00.092Z,3.30
2022-11-16T07:34:51.070Z,3.40
2022-11-16T07:37:18.138Z,3.40
2022-11-16T07:39:45.857Z,3.30
2022-11-16T07:42:13.561Z,3.20
2022-11-16T07:45:04.057Z,3.20
2022-11-16T07:47:37.460Z,3.20
2022-11-16T07:50:07.248Z,3.20
2022-11-16T07:52:35.549Z,3.20
2022-11-16T07:55:19.236Z,3.20
2022-11-16T07:57:53.111Z,3.20
2022-11-16T08:00:21.369Z,3.20
2022-11-16T08:02:57.547Z,3.20
2022-11-16T08:05:25.632Z,3.20
2022-11-16T08:07:52.574Z,3.10
2022-11-16T08:10:23.366Z,3.30
2022-11-16T08:12:50.582Z,3.40
2022-11-16T08:15:19.653Z,3.50
2022-11-16T08:17:46.782Z,3.50
2022-11-16T08:20:33.850Z,3.60
2022-11-16T08:23:07.704Z,3.50
2022-11-16T08:25:36.030Z,3.50
2022-11-16T08:28:03.133Z,3.50
2022-11-16T08:30:31.798Z,3.50
2022-11-16T08:33:00.336Z,3.40
2022-11-16T08:35:27.309Z,3.30
2022-11-16T08:37:54.439Z,3.30
2022-11-16T08:40:21.499Z,3.20
2022-11-16T08:42:48.574Z,3.30
2022-11-16T08:45:15.570Z,3.30
2022-11-16T08:47:42.773Z,3.30
2022-11-16T08:50:09.869Z,3.30
2022-11-16T08:52:37.719Z,3.40
2022-11-16T08:55:06.773Z,3.50
2022-11-16T08:57:34.056Z,3.50
2022-11-16T09:00:06.149Z,3.50
2022-11-16T09:02:33.237Z,3.50
2022-11-16T09:05:00.120Z,3.60
2022-11-16T09:07:28.089Z,3.50
2022-11-16T09:09:55.134Z,3.50
2022-11-16T09:12:22.249Z,3.50
2022-11-16T09:14:49.188Z,3.50
2022-11-16T09:17:20.319Z,3.60
2022-11-16T09:19:50.142Z,3.70
2022-11-16T09:22:17.034Z,3.70
2022-11-16T09:24:56.876Z,3.70
2022-11-16T09:27:30.590Z,3.70
2022-11-16T09:29:57.505Z,3.60
2022-11-16T09:32:24.490Z,3.50
2022-11-16T09:34:51.377Z,3.60
2022-11-16T09:37:18.456Z,3.70
2022-11-16T09:39:45.367Z,3.80
2022-11-16T09:42:21.680Z,3.70
2022-11-16T09:44:54.942Z,3.80
2022-11-16T09:47:24.265Z,3.80
2022-11-16T09:50:01.500Z,3.80
2022-11-16T09:52:36.908Z,3.80
2022-11-16T09:55:18.377Z,3.80
2022-11-16T09:57:46.773Z,3.80
2022-11-16T10:00:18.073Z,3.80
2022-11-16T10:02:50.020Z,3.90
2022-11-16T10:05:20.253Z,4.00
2022-11-16T10:07:50.325Z,4.10
2022-11-16T10:10:20.349Z,4.10
2022-11-16T10:13:08.971Z,4.10
2022-11-16T10:16:01.330Z,4.20
2022-11-16T10:19:00.015Z,4.10
2022-11-16T10:21:35.115Z,3.80
2022-11-16T10:24:05.254Z,3.60
2022-11-16T10:26:42.523Z,3.50
2022-11-16T10:29:21.587Z,3.50
2022-11-16T10:31:51.534Z,3.60
2022-11-16T10:34:21.592Z,3.60
2022-11-16T11:25:33.411Z,3.70
2022-11-16T11:28:08.868Z,3.80
2022-11-16T11:30:36.236Z,3.70
2022-11-16T11:33:09.235Z,3.70
2022-11-16T11:35:36.172Z,3.80
2022-11-16T11:38:08.005Z,3.90
2022-11-16T11:40:37.706Z,3.90
2022-11-16T11:43:05.750Z,3.90
2022-11-16T11:45:45.111Z,3.90
2022-11-16T11:48:25.245Z,3.70
2022-11-16T11:50:57.798Z,3.80
2022-11-16T11:53:44.058Z,3.70
2022-11-16T11:56:24.137Z,3.70
2022-11-16T11:58:57.754Z,3.60
2022-11-16T12:01:40.034Z,3.60
2022-11-16T12:04:25.494Z,3.70
2022-11-16T12:07:11.458Z,3.80
2022-11-16T12:09:47.766Z,3.80
2022-11-16T12:12:27.101Z,3.80
2022-11-16T12:14:54.232Z,3.60
2022-11-16T12:17:32.386Z,3.60
2022-11-16T12:20:17.006Z,3.60
2022-11-16T12:22:51.636Z,3.60
2022-11-16T12:25:33.809Z,3.60
2022-11-16T12:28:25.307Z,3.70
2022-11-16T12:31:12.108Z,3.70
2022-11-16T12:33:45.764Z,3.70
2022-11-16T12:36:29.347Z,3.80
2022-11-16T12:39:02.507Z,3.80
2022-11-16T12:41:37.610Z,3.70
2022-11-16T12:44:12.659Z,3.70
2022-11-16T12:46:58.412Z,3.80
2022-11-16T12:49:34.677Z,3.70
2022-11-16T12:52:08.224Z,3.70
2022-11-16T12:55:24.033Z,3.40
2022-11-16T12:57:47.125Z,3.30
2022-11-16T13:00:18.720Z,3.20
2022-11-16T13:02:48.548Z,3.10
2022-11-16T13:05:19.301Z,3.10
2022-11-16T13:07:48.638Z,3.00
2022-11-16T13:10:30.486Z,3.00
2022-11-16T13:13:29.739Z,3.00
2022-11-16T13:15:48.385Z,3.10
2022-11-16T13:18:17.286Z,3.10
2022-11-16T13:20:50.204Z,3.10
2022-11-16T13:23:17.179Z,3.10
2022-11-16T13:25:44.110Z,3.00
2022-11-16T13:28:20.249Z,2.90
2022-11-16T13:30:56.327Z,2.80
2022-11-16T13:33:39.129Z,2.80
2022-11-16T13:36:31.628Z,2.80
2022-11-16T13:38:58.749Z,2.80
2022-11-16T13:41:26.394Z,2.80
2022-11-16T13:43:53.348Z,2.70
2022-11-16T13:46:53.657Z,2.80
2022-11-16T13:49:19.040Z,2.90
2022-11-16T13:52:16.900Z,2.90
2022-11-16T13:54:48.807Z,2.90
2022-11-16T13:57:19.221Z,2.80
2022-11-16T13:59:47.945Z,2.90
2022-11-16T14:02:36.672Z,2.80
2022-11-16T14:05:05.020Z,2.80
2022-11-16T14:07:33.446Z,2.90
2022-11-16T14:10:00.968Z,2.80
2022-11-16T14:12:46.456Z,2.80
2022-11-16T14:15:18.253Z,2.80
2022-11-16T14:17:52.262Z,2.70
2022-11-16T14:20:28.222Z,2.80
2022-11-16T14:23:01.075Z,2.80
2022-11-16T14:25:47.289Z,2.90
2022-11-16T14:28:17.396Z,2.90
2022-11-16T14:31:19.179Z,2.90
2022-11-16T14:34:07.425Z,2.80
2022-11-16T14:36:43.071Z,2.90
2022-11-16T14:39:16.166Z,2.90
2022-11-16T14:41:47.279Z,2.80
2022-11-16T14:44:17.873Z,2.70
2022-11-16T14:46:45.089Z,2.70
2022-11-16T14:49:13.476Z,2.70
2022-11-16T14:51:44.667Z,2.70
2022-11-16T14:54:14.790Z,2.80
2022-11-16T14:56:58.470Z,2.80
2022-11-16T14:59:25.898Z,2.70
2022-11-16T15:01:53.518Z,2.70
2022-11-16T15:04:21.404Z,2.60
2022-11-16T15:07:05.228Z,2.60
2022-11-16T15:09:40.492Z,2.60
2022-11-16T15:12:44.340Z,2.60
2022-11-16T15:15:28.920Z,2.50
2022-11-16T15:18:02.241Z,2.40
2022-11-16T15:20:34.062Z,2.40
2022-11-16T15:23:02.369Z,2.50
2022-11-16T15:25:32.446Z,2.50
2022-11-16T15:28:00.974Z,2.60
2022-11-16T15:30:29.340Z,2.60
2022-11-16T15:32:56.413Z,2.70
2022-11-16T15:35:34.078Z,2.70
2022-11-16T15:38:02.382Z,2.70
2022-11-16T15:40:29.761Z,2.50
2022-11-16T15:42:59.107Z,2.50
2022-11-16T15:45:26.541Z,2.50
2022-11-16T15:47:53.960Z,2.40
2022-11-16T15:50:23.476Z,2.40
2022-11-16T15:52:55.232Z,2.30
2022-11-16T15:55:41.060Z,2.30
2022-11-16T15:58:18.434Z,2.40
2022-11-16T16:00:47.805Z,2.50
2022-11-16T16:03:23.017Z,2.50
2022-11-16T16:05:50.527Z,2.40
2022-11-16T16:08:31.386Z,2.40
2022-11-16T16:11:31.280Z,2.50
2022-11-16T16:14:05.037Z,2.40
2022-11-16T16:16:38.499Z,2.30
2022-11-16T16:19:24.231Z,2.40
2022-11-16T16:21:51.455Z,2.40
2022-11-16T16:24:37.012Z,2.40
2022-11-16T16:27:15.620Z,2.50
2022-11-16T16:29:43.220Z,2.50
2022-11-16T16:32:22.733Z,2.50
2022-11-16T16:34:49.683Z,2.50
2022-11-16T16:37:16.586Z,2.50
2022-11-16T16:39:43.666Z,2.50
2022-11-16T16:42:11.966Z,2.50
2022-11-16T16:44:39.612Z,2.50
2022-11-16T16:47:06.808Z,2.40
2022-11-16T16:49:33.934Z,2.40
2022-11-16T16:52:01.228Z,2.40
2022-11-16T16:54:31.044Z,2.40
2022-11-16T16:56:58.281Z,2.40
2022-11-16T16:59:25.382Z,2.30
2022-11-16T17:01:52.597Z,2.40
2022-11-16T17:04:19.572Z,2.30
2022-11-16T17:06:46.792Z,2.20
2022-11-16T17:09:14.007Z,2.30
2022-11-16T17:11:40.919Z,2.30
2022-11-16T17:14:08.232Z,2.30
2022-11-16T17:16:35.511Z,2.30
2022-11-16T17:19:03.159Z,2.20
2022-11-16T17:21:30.535Z,2.20
2022-11-16T17:23:57.706Z,2.20
2022-11-16T17:26:29.315Z,2.20
2022-11-16T17:28:57.136Z,2.20
2022-11-16T17:31:24.817Z,2.20
2022-11-16T17:33:51.957Z,2.20
2022-11-16T17:36:18.991Z,2.10
2022-11-16T17:38:45.944Z,2.20
2022-11-16T17:41:14.715Z,2.30
2022-11-16T17:43:42.261Z,2.30
2022-11-16T17:46:10.738Z,2.20
2022-11-16T17:48:45.488Z,2.20
2022-11-16T17:51:21.075Z,2.20
2022-11-16T17:53:49.732Z,2.30
2022-11-16T17:56:21.042Z,2.20
2022-11-16T17:58:50.198Z,2.20
2022-11-16T18:01:17.285Z,2.20
2022-11-16T18:03:44.811Z,2.20
2022-11-16T18:06:13.572Z,2.10
2022-11-16T18:08:40.882Z,2.20
2022-11-16T18:11:09.767Z,2.20
2022-11-16T18:13:37.180Z,2.30
2022-11-16T18:16:10.392Z,2.30
2022-11-16T18:18:38.514Z,2.30
2022-11-16T18:21:06.121Z,2.10
2022-11-16T18:23:34.174Z,1.90
2022-11-16T18:26:03.360Z,1.80
2022-11-16T18:28:30.405Z,1.80
2022-11-16T18:31:13.519Z,1.90
2022-11-16T18:34:00.402Z,1.90
2022-11-16T18:36:28.401Z,1.70
2022-11-16T18:38:55.368Z,1.70
2022-11-16T18:41:27.776Z,1.70
2022-11-16T18:43:56.080Z,1.50
2022-11-16T18:46:24.175Z,1.50
2022-11-16T18:48:51.379Z,1.50
2022-11-16T18:51:19.169Z,1.50
2022-11-16T18:53:46.129Z,1.40
2022-11-16T18:56:13.443Z,1.40
2022-11-16T18:58:50.300Z,1.50
2022-11-16T19:01:18.696Z,1.40
2022-11-16T19:03:45.997Z,1.50
2022-11-16T19:06:14.910Z,1.50
2022-11-16T19:08:42.312Z,1.50
2022-11-16T19:11:10.639Z,1.40
2022-11-16T19:13:38.201Z,1.30
2022-11-16T19:16:19.529Z,1.40
2022-11-16T19:18:59.634Z,1.40
2022-11-16T19:21:33.354Z,1.40
2022-11-16T19:24:00.359Z,1.40
2022-11-16T19:26:28.320Z,1.40
2022-11-16T19:28:55.340Z,1.30
2022-11-16T19:31:26.689Z,1.20
2022-11-16T19:33:55.146Z,1.20
2022-11-16T19:36:22.725Z,1.20
2022-11-16T19:38:49.908Z,1.20
2022-11-16T19:41:17.795Z,1.30
2022-11-16T19:43:44.822Z,1.20
2022-11-16T19:46:13.461Z,1.20
2022-11-16T19:48:41.338Z,1.20
2022-11-16T19:51:12.587Z,1.40
2022-11-16T19:53:40.306Z,1.40
2022-11-16T19:56:09.064Z,1.40
2022-11-16T19:58:38.363Z,1.30
2022-11-16T20:01:06.541Z,1.20
2022-11-16T20:03:49.589Z,1.20
2022-11-16T20:06:29.205Z,1.10
2022-11-16T20:08:58.615Z,1.20
2022-11-16T20:11:26.852Z,1.20
2022-11-16T20:13:55.171Z,1.20
2022-11-16T20:16:24.527Z,1.20
2022-11-16T20:19:32.728Z,1.20
2022-11-16T20:22:00.119Z,1.30
2022-11-16T20:24:28.169Z,1.30
2022-11-16T20:26:55.369Z,1.30
2022-11-16T20:29:22.245Z,1.40
2022-11-16T20:31:49.284Z,1.50
2022-11-16T20:34:29.586Z,1.60
2022-11-16T20:37:09.652Z,1.60
2022-11-16T20:39:46.120Z,1.60
2022-11-16T20:42:13.760Z,1.50
2022-11-16T20:44:40.787Z,1.50
2022-11-16T20:47:07.754Z,1.50
2022-11-16T20:49:34.730Z,1.30
2022-11-16T20:52:02.304Z,1.30
2022-11-16T20:54:29.767Z,1.30
2022-11-16T20:56:56.896Z,1.30
2022-11-16T20:59:23.827Z,1.40
2022-11-16T21:01:53.856Z,1.40
2022-11-16T21:04:21.163Z,1.40
2022-11-16T21:06:48.136Z,1.40
2022-11-16T21:09:22.864Z,1.30
2022-11-16T21:12:08.722Z,1.30
2022-11-16T21:14:35.741Z,1.30
2022-11-16T21:17:02.730Z,1.30
2022-11-16T21:19:29.793Z,1.40
2022-11-16T21:21:56.709Z,1.30
2022-11-16T21:24:24.911Z,1.30
2022-11-16T21:26:52.567Z,1.40
2022-11-16T21:29:25.885Z,1.30
2022-11-16T21:31:52.959Z,1.20
2022-11-16T21:34:23.654Z,1.20
2022-11-16T21:36:52.487Z,1.20
2022-11-16T21:39:25.780Z,1.30
2022-11-16T21:42:12.603Z,1.30
2022-11-16T21:44:52.720Z,1.30
2022-11-16T21:47:26.315Z,1.30
2022-11-16T21:50:24.858Z,1.30
2022-11-16T21:52:40.396Z,1.20
2022-11-16T21:55:07.553Z,1.20
2022-11-16T21:57:34.583Z,1.10
2022-11-16T22:00:02.475Z,1.00
2022-11-16T22:02:38.502Z,1.00
2022-11-16T22:05:24.054Z,1.10
2022-11-16T22:08:11.637Z,1.20
2022-11-16T22:10:49.594Z,1.30
2022-11-16T22:13:16.682Z,1.30
2022-11-16T22:15:43.596Z,1.40
2022-11-16T22:18:10.578Z,1.40
2022-11-16T22:20:39.573Z,1.30
2022-11-16T22:23:06.724Z,1.30
2022-11-16T22:25:33.699Z,1.20
2022-11-16T22:30:51.675Z,1.00
2022-11-16T22:33:19.234Z,1.00
2022-11-16T22:35:59.687Z,1.00
2022-11-16T22:38:39.782Z,0.90
2022-11-16T22:41:27.637Z,0.90
2022-11-16T22:44:07.772Z,1.00
2022-11-16T22:46:55.717Z,0.90
2022-11-16T22:49:42.653Z,0.90
2022-11-16T22:52:17.306Z,0.90
2022-11-16T22:54:44.252Z,1.00
2022-11-16T22:57:11.309Z,0.90
2022-11-16T22:59:38.245Z,0.90
2022-11-16T23:02:05.944Z,1.00
2022-11-16T23:04:32.870Z,1.00
2022-11-16T23:07:00.521Z,1.10
2022-11-16T23:09:27.455Z,1.20
2022-11-16T23:12:13.018Z,1.20
2022-11-16T23:14:58.719Z,1.00
2022-11-16T23:17:25.724Z,0.90
2022-11-16T23:20:17.301Z,0.90
2022-11-16T23:23:03.550Z,0.90
2022-11-16T23:25:49.128Z,0.90
2022-11-16T23:28:16.670Z,0.80
2022-11-16T23:30:43.643Z,0.70
2022-11-16T23:33:23.815Z,0.80
2022-11-16T23:35:57.407Z,0.90
2022-11-16T23:38:24.315Z,1.00
2022-11-16T23:40:54.011Z,1.00
2022-11-16T23:43:39.609Z,1.00
2022-11-16T23:46:06.624Z,0.90
2022-11-16T23:48:33.572Z,0.80
2022-11-16T23:51:00.657Z,0.70
2022-11-16T23:53:27.583Z,0.70
2022-11-16T23:55:54.597Z,0.60
2022-11-16T23:58:21.611Z,0.50
